createdAt,value
2023-10-06T00:09:29.941Z,7.30
2023-10-06T00:24:32.744Z,6.77
2023-10-06T00:39:34.441Z,7.33
2023-10-06T00:54:36.220Z,7.47
2023-10-06T01:09:37.883Z,6.73
2023-10-06T01:24:39.608Z,6.37
2023-10-06T01:39:41.694Z,7.37
2023-10-06T01:54:46.452Z,6.70
2023-10-06T02:09:49.666Z,6.80
2023-10-06T02:24:51.338Z,6.70
2023-10-06T02:39:54.473Z,7.53
2023-10-06T02:55:05.436Z,6.63
2023-10-06T03:10:11.376Z,6.57
2023-10-06T03:25:18.263Z,6.40
2023-10-06T03:40:47.549Z,6.07
2023-10-06T03:55:49.251Z,5.40
2023-10-06T04:11:01.401Z,6.23
2023-10-06T04:26:03.158Z,4.87
2023-10-06T04:41:08.500Z,6.07
2023-10-06T04:56:10.353Z,6.43
2023-10-06T05:11:12.748Z,5.93
2023-10-06T05:26:16.480Z,6.87
2023-10-06T05:41:18.905Z,6.47
2023-10-06T05:56:21.429Z,6.27
2023-10-06T06:11:23.211Z,5.70
2023-10-06T06:26:26.027Z,6.50
2023-10-06T06:41:28.708Z,6.10
2023-10-06T06:56:31.409Z,6.40
2023-10-06T07:11:35.549Z,6.30
2023-10-06T07:26:38.211Z,6.63
2023-10-06T07:41:39.941Z,7.63
2023-10-06T07:56:43.537Z,6.77
2023-10-06T08:11:46.568Z,6.90
2023-10-06T08:26:50.115Z,7.90
2023-10-06T08:41:55.884Z,6.50
2023-10-06T08:56:57.605Z,8.13
2023-10-06T09:11:59.905Z,7.30
2023-10-06T09:27:19.223Z,8.20
2023-10-06T09:42:21.354Z,8.00
2023-10-06T09:57:23.419Z,8.17
2023-10-06T10:12:49.391Z,7.78
2023-10-06T10:28:18.433Z,7.73
2023-10-06T10:43:22.103Z,8.13
2023-10-06T10:58:45.482Z,7.07
2023-10-06T11:14:06.759Z,7.30
2023-10-06T11:29:08.724Z,6.30
2023-10-06T11:44:10.596Z,7.40
2023-10-06T11:59:20.582Z,5.20
2023-10-06T12:14:22.398Z,4.43
2023-10-06T12:29:24.174Z,4.23
2023-10-06T12:44:28.498Z,4.80
2023-10-06T12:59:33.847Z,5.10
2023-10-06T13:14:36.270Z,4.43
2023-10-06T13:29:41.835Z,4.57
2023-10-06T13:44:44.506Z,4.03
2023-10-06T13:59:47.942Z,4.18
2023-10-06T14:14:49.604Z,3.53
2023-10-06T14:29:52.429Z,4.53
2023-10-06T14:45:12.867Z,4.30
2023-10-06T15:00:15.471Z,4.20
2023-10-06T15:15:17.301Z,4.10
2023-10-06T15:30:19.044Z,3.80
2023-10-06T15:45:20.685Z,4.80
2023-10-06T16:00:24.184Z,4.40
2023-10-06T16:15:29.470Z,4.30
2023-10-06T16:30:31.219Z,4.00
2023-10-06T16:45:36.186Z,3.60
2023-10-06T17:00:39.105Z,3.90
2023-10-06T17:15:41.550Z,4.20
2023-10-06T17:30:43.212Z,4.03
2023-10-06T17:45:46.009Z,4.10
2023-10-06T18:00:48.808Z,3.97
2023-10-06T18:15:53.818Z,3.73
2023-10-06T18:30:56.791Z,4.10
2023-10-06T18:46:00.671Z,4.10
2023-10-06T19:01:05.155Z,3.63
2023-10-06T19:16:15.418Z,3.37
2023-10-06T19:31:18.001Z,3.53
2023-10-06T19:46:20.214Z,3.30
2023-10-06T20:01:25.312Z,3.83
2023-10-06T20:16:27.659Z,3.50
2023-10-06T20:31:30.519Z,4.13
2023-10-06T20:46:32.504Z,3.90
2023-10-06T21:01:34.405Z,3.80
2023-10-06T21:16:37.597Z,4.07
2023-10-06T21:31:40.158Z,4.30
2023-10-06T21:46:42.229Z,4.10
2023-10-06T22:01:44.216Z,3.87
2023-10-06T22:16:49.623Z,4.60
2023-10-06T22:31:51.718Z,4.07
2023-10-06T22:46:53.770Z,4.07
2023-10-06T23:01:55.652Z,4.37
2023-10-06T23:17:02.249Z,4.10
2023-10-06T23:32:04.934Z,4.30
2023-10-06T23:47:13.524Z,3.97
